Terminal Aerodrome Forecast
Issued by NWS Sioux Falls, SD

Home | Current Version | Previous Version | Text Only | Print | Product List | Glossary Off
Versions: 1 2 3 4 5 6 7 8 9 10 11 12 13 14 15 16 17 18 19 20 21 22 23 24 25 26 27 28 29 30 31 32 33

029
FTUS43 KFSD 172327
TAFSUX
TAF
KSUX 172327Z 1800/1824 30006KT P6SM SCT025
     FM180300 13006KT P6SM SCT200
     FM180800 14012KT P6SM BKN110 WS012/18035KT
     FM181200 17017G30KT P6SM FEW250 WS012/20055KT
     FM182000 21012KT P6SM FEW250=

USA.gov is the U.S. government's official web portal to all federal, state and local government web resources and services.